Briefing drone pour Dijon (LFSD)

Rechercher une autre localisation

Conditions de vol :


Nous sommes le : Samedi 27 février 2021
Il est 07:15 UTC (08:15 LT)

Lever de soleil : 05:56 UTC (06:56 LT)
Coucher de soleil : 17:48 UTC (18:48 LT)

Météo

L'essentiel des conditions de vol

VIGILANCE MÉTÉO FRANCE - Côte-dOr (21)
Pas de vigilances particulieres
CARTE TEMSI
CARTES DES FRONTS
METAR de LFSD
LFSD 270700Z AUTO 36014KT 9999 BKN029 04/M00 Q1033

Date d'émission: 27/02/2021
Heure d'émission: 07:00 UTC
Vent: 360° pour 14 KT (26 km/h)
Visibilité horizontale: > 10 km
Plafond :
- Nuages morcelés à 2900ft (884m)
Température: 4 °C
Point de rosée: 0 °C
Humidité: 75%
Pression (QNH): 1033 hPa
TAF de LFSD
LFSD 010600Z 0100/0124 CNL

Conditions prévues :

Heure d'émission : Bulletin éffectué le 01 à 00:00 UTC
Prévision : Valide du 01 a 00:00 UTC au 01 a 23:59 UTC
Nuages : à 0ft (0 m)
WEBCAM POUR DIJON

Réglementation

Voler en sécurité

CARTES AERONAUTIQUE 1/500.000
CARTES VAC (LFSD)
SUP AIP




Chargement des AIP...
NOTAM (DIJON + Terrain à proximité / FIR )




Chargement des NOTAMS...
CONTACT PREFECTURE 21
Côte-dOr (21) : pref-drone@cote-dor.gouv.fr


Avertissement : Les données mises à disposition sont indicatives. Oxygène Drone ne pourra être tenu responsable de dégâts causés aux biens et aux personnes.